Time;durP1;ratioP1;P1;durP2;ratioP2;P2;SDS_P1;SDS_P2;PMS_P1;PMS_P2;Temp;Humidity;BMP_temperature;BMP_pressure;BME280_temperature;BME280_humidity;BME280_pressure;Samples;Min_cycle;Max_cycle;Signal;HPM_P1;HPM_P2
2022/09/03 00:01:10;;;;;;;2.83;0.82;;;12.10;99.90;;;;;;5014234;28;20675;-70
2022/09/03 00:03:45;;;;;;;4.57;0.80;;;12.20;99.90;;;;;;5014140;28;20202;-69
2022/09/03 00:06:22;;;;;;;2.25;0.90;;;12.10;99.90;;;;;;5013992;28;20194;-70
2022/09/03 00:08:58;;;;;;;1.92;0.70;;;12.20;99.90;;;;;;5014112;28;20190;-70
2022/09/03 00:11:33;;;;;;;4.88;1.10;;;12.20;99.90;;;;;;5014071;28;20194;-70
2022/09/03 00:14:09;;;;;;;8.50;1.40;;;12.30;99.90;;;;;;5014246;28;20239;-70
2022/09/03 00:16:45;;;;;;;11.07;1.55;;;12.40;99.90;;;;;;5013867;28;20194;-70
2022/09/03 00:19:20;;;;;;;10.32;1.60;;;12.50;99.90;;;;;;5013855;28;20198;-70
2022/09/03 00:21:56;;;;;;;9.73;1.60;;;12.50;99.90;;;;;;5013922;28;20191;-72
2022/09/03 00:24:31;;;;;;;9.23;1.17;;;12.60;99.90;;;;;;5013829;28;20587;-71
2022/09/03 00:27:06;;;;;;;10.45;1.30;;;12.60;99.90;;;;;;5013821;28;20187;-71
2022/09/03 00:29:42;;;;;;;9.00;1.13;;;12.70;99.90;;;;;;5013139;28;20191;-71
2022/09/03 00:32:18;;;;;;;9.02;1.40;;;12.70;99.90;;;;;;5027516;28;20186;-71
2022/09/03 00:34:55;;;;;;;11.05;1.58;;;12.80;99.90;;;;;;5033385;28;20198;-71
2022/09/03 00:37:27;;;;;;;10.27;1.50;;;12.80;99.90;;;;;;5028155;28;20234;-71
2022/09/03 00:39:58;;;;;;;12.52;1.63;;;12.80;99.90;;;;;;5051574;28;20236;-71
2022/09/03 00:42:40;;;;;;;7.32;1.95;;;12.80;99.90;;;;;;5047466;28;20195;-71
2022/09/03 00:45:25;;;;;;;13.52;1.65;;;12.80;99.90;;;;;;5033393;28;20186;-71
2022/09/03 00:48:10;;;;;;;6.68;1.15;;;12.80;99.90;;;;;;5033578;28;20196;-71
2022/09/03 00:50:54;;;;;;;6.97;1.42;;;12.80;99.90;;;;;;5033237;28;20569;-70
2022/09/03 00:53:34;;;;;;;11.73;1.88;;;12.90;99.90;;;;;;5036711;28;20196;-71
2022/09/03 00:56:10;;;;;;;14.27;1.95;;;13.00;99.90;;;;;;5039686;28;20649;-70
2022/09/03 00:58:57;;;;;;;17.15;2.15;;;13.00;99.90;;;;;;5034177;28;20189;-70
2022/09/03 01:01:42;;;;;;;11.75;1.70;;;13.10;99.90;;;;;;5053058;28;20578;-71
2022/09/03 01:04:29;;;;;;;7.72;1.30;;;13.00;99.90;;;;;;5053091;28;20204;-70
2022/09/03 01:07:11;;;;;;;9.32;2.05;;;13.10;99.90;;;;;;5053273;28;20194;-70
2022/09/03 01:09:52;;;;;;;12.40;2.00;;;13.20;99.90;;;;;;5052986;28;20637;-70
2022/09/03 01:12:35;;;;;;;11.63;1.55;;;13.20;99.90;;;;;;5039205;28;20230;-70
2022/09/03 01:15:13;;;;;;;13.00;2.08;;;13.20;99.90;;;;;;5033310;28;20197;-70
2022/09/03 01:17:58;;;;;;;15.80;1.95;;;13.20;99.90;;;;;;5032914;28;20194;-69
2022/09/03 01:20:45;;;;;;;13.45;1.75;;;13.10;99.90;;;;;;5033114;28;20221;-70
2022/09/03 01:23:53;;;;;;;13.23;1.63;;;13.10;99.90;;;;;;5033331;28;20213;-69
2022/09/03 01:26:51;;;;;;;7.30;1.55;;;13.10;99.90;;;;;;5022715;28;20291;-69
2022/09/03 01:29:31;;;;;;;6.35;1.30;;;13.10;99.90;;;;;;5032957;28;20190;-69
2022/09/03 01:32:08;;;;;;;8.93;1.20;;;13.00;99.90;;;;;;5032822;28;20642;-69
2022/09/03 01:34:50;;;;;;;9.95;1.48;;;13.10;99.90;;;;;;5032792;28;20196;-69
2022/09/03 01:37:28;;;;;;;10.82;1.60;;;13.10;99.90;;;;;;5041569;28;20237;-69
2022/09/03 01:40:08;;;;;;;9.75;1.58;;;13.00;99.90;;;;;;5033774;28;20291;-70
2022/09/03 01:42:49;;;;;;;8.60;1.58;;;13.10;99.90;;;;;;5042751;28;20645;-70
2022/09/03 01:45:45;;;;;;;17.10;1.75;;;13.10;99.90;;;;;;5056330;28;20197;-70
2022/09/03 01:48:36;;;;;;;8.65;1.23;;;13.10;99.90;;;;;;5056150;28;20198;-70
2022/09/03 01:51:19;;;;;;;12.57;1.45;;;13.10;99.90;;;;;;5055226;28;20208;-70
2022/09/03 01:54:32;;;;;;;12.07;1.58;;;13.10;99.90;;;;;;5056339;28;20221;-70
2022/09/03 01:57:28;;;;;;;10.82;1.42;;;13.10;99.90;;;;;;5036308;28;20197;-69
2022/09/03 02:00:04;;;;;;;10.77;1.50;;;13.10;99.90;;;;;;5036149;28;20699;-69
2022/09/03 02:02:37;;;;;;;8.02;1.48;;;13.10;99.90;;;;;;5036043;28;20194;-69
2022/09/03 02:05:11;;;;;;;8.65;1.20;;;13.10;99.90;;;;;;5036118;28;20194;-69
2022/09/03 02:07:44;;;;;;;8.25;1.27;;;13.00;99.90;;;;;;5036179;28;20186;-69
2022/09/03 02:10:16;;;;;;;6.53;1.08;;;13.00;99.90;;;;;;5036010;28;20205;-69
2022/09/03 02:12:50;;;;;;;9.27;1.30;;;13.00;99.90;;;;;;5035918;28;20669;-70
2022/09/03 02:15:23;;;;;;;9.27;1.33;;;13.00;99.90;;;;;;5035701;28;20198;-73
2022/09/03 02:17:58;;;;;;;4.35;1.08;;;12.90;99.90;;;;;;5035586;28;20201;-72
2022/09/03 02:20:31;;;;;;;6.07;1.10;;;12.90;99.90;;;;;;5035683;28;20214;-72
2022/09/03 02:23:02;;;;;;;9.82;1.30;;;12.80;99.90;;;;;;5035741;28;20193;-69
2022/09/03 02:25:37;;;;;;;7.28;1.75;;;12.90;99.90;;;;;;5035528;28;20191;-70
2022/09/03 02:28:10;;;;;;;9.07;1.42;;;12.90;99.90;;;;;;5035821;28;20202;-70
2022/09/03 02:30:41;;;;;;;7.63;1.42;;;12.90;99.90;;;;;;5037210;28;20193;-69
2022/09/03 02:33:14;;;;;;;11.45;1.95;;;12.90;99.90;;;;;;5055113;28;20196;-70
2022/09/03 02:35:45;;;;;;;8.50;1.45;;;13.00;99.90;;;;;;5054571;28;20209;-70
2022/09/03 02:38:17;;;;;;;7.45;1.20;;;13.10;99.90;;;;;;5043711;28;20225;-69
2022/09/03 02:40:48;;;;;;;7.80;1.42;;;13.20;99.90;;;;;;5055196;28;20263;-69
2022/09/03 02:43:24;;;;;;;9.88;1.38;;;13.30;99.90;;;;;;5042240;28;20194;-68
2022/09/03 02:45:58;;;;;;;7.30;1.15;;;13.40;99.90;;;;;;5035169;28;20621;-69
2022/09/03 02:48:31;;;;;;;7.28;1.13;;;13.70;99.90;;;;;;5035186;28;20201;-69
2022/09/03 02:51:02;;;;;;;7.43;1.50;;;13.90;99.90;;;;;;5035201;28;20226;-68
2022/09/03 02:53:33;;;;;;;9.45;1.30;;;14.20;99.90;;;;;;5034201;28;20193;-69
2022/09/03 02:56:04;;;;;;;8.50;1.58;;;14.60;99.90;;;;;;5052663;28;20197;-68
2022/09/03 02:58:35;;;;;;;4.28;0.88;;;14.90;99.90;;;;;;5055004;28;20196;-67
2022/09/03 03:01:06;;;;;;;8.15;1.20;;;14.90;99.90;;;;;;5054634;28;20217;-67
2022/09/03 03:03:39;;;;;;;6.28;1.10;;;14.70;99.90;;;;;;5054996;28;20200;-67
2022/09/03 03:06:11;;;;;;;6.25;1.45;;;14.40;99.90;;;;;;5054720;28;20216;-67
2022/09/03 03:08:42;;;;;;;6.35;1.15;;;14.40;99.90;;;;;;5054844;28;20189;-67
2022/09/03 03:11:17;;;;;;;5.18;1.30;;;14.40;99.90;;;;;;5054747;28;20194;-67
2022/09/03 03:13:48;;;;;;;6.45;1.40;;;14.40;99.90;;;;;;5054941;28;20356;-68
2022/09/03 03:16:19;;;;;;;3.10;0.90;;;14.60;99.90;;;;;;5054292;28;20189;-67
2022/09/03 03:18:52;;;;;;;6.57;1.13;;;14.70;99.90;;;;;;5054649;28;20189;-67
2022/09/03 03:21:22;;;;;;;5.95;0.70;;;14.80;99.90;;;;;;5054395;28;20228;-67
2022/09/03 03:23:53;;;;;;;7.15;0.88;;;15.00;99.90;;;;;;5054436;28;20186;-67
2022/09/03 03:26:25;;;;;;;4.03;1.05;;;15.10;99.90;;;;;;5054418;28;20190;-67
2022/09/03 03:28:59;;;;;;;4.30;0.90;;;15.10;99.90;;;;;;5054382;28;20605;-67
2022/09/03 03:31:30;;;;;;;5.13;1.27;;;15.20;99.90;;;;;;5045187;28;20186;-67
2022/09/03 03:34:04;;;;;;;4.80;1.08;;;15.10;99.90;;;;;;5034198;28;20213;-67
2022/09/03 03:36:37;;;;;;;5.22;1.20;;;15.10;99.90;;;;;;5037658;28;20229;-67
2022/09/03 03:39:07;;;;;;;8.48;1.30;;;15.20;99.90;;;;;;5042004;28;20681;-67
2022/09/03 03:41:39;;;;;;;8.32;1.17;;;15.20;99.90;;;;;;5034119;28;20226;-67
2022/09/03 03:44:10;;;;;;;6.75;1.15;;;15.20;99.90;;;;;;5033944;28;20642;-68
2022/09/03 03:46:42;;;;;;;5.65;0.95;;;15.10;99.90;;;;;;5034170;28;20204;-67
2022/09/03 03:49:14;;;;;;;4.32;1.00;;;15.00;99.90;;;;;;5034126;28;20194;-68
2022/09/03 03:51:45;;;;;;;7.35;1.10;;;14.80;99.90;;;;;;5034053;28;20203;-68
2022/09/03 03:54:16;;;;;;;7.47;1.00;;;14.60;99.90;;;;;;5037049;28;20182;-67
2022/09/03 03:56:46;;;;;;;2.70;0.90;;;14.40;99.90;;;;;;5053780;28;20656;-67
2022/09/03 03:59:17;;;;;;;5.20;0.95;;;14.10;99.90;;;;;;5053723;28;20194;-67
2022/09/03 04:01:49;;;;;;;4.20;1.00;;;13.80;99.90;;;;;;5048177;28;20221;-68
2022/09/03 04:04:22;;;;;;;5.80;1.05;;;13.50;99.90;;;;;;5041876;28;20222;-67
2022/09/03 04:06:53;;;;;;;5.05;1.35;;;13.30;99.90;;;;;;5044267;28;20194;-68
2022/09/03 04:09:23;;;;;;;4.93;1.10;;;13.20;99.90;;;;;;5048406;28;20197;-68
2022/09/03 04:11:56;;;;;;;6.43;1.30;;;13.20;99.90;;;;;;5045823;28;20196;-69
2022/09/03 04:14:27;;;;;;;5.93;1.00;;;13.20;99.90;;;;;;5041121;28;20605;-69
2022/09/03 04:16:58;;;;;;;8.15;1.08;;;13.20;99.90;;;;;;5047173;28;20255;-69
2022/09/03 04:19:31;;;;;;;6.93;1.48;;;13.20;99.90;;;;;;5042654;28;20204;-69
2022/09/03 04:22:02;;;;;;;8.52;1.55;;;13.20;99.90;;;;;;5047596;28;20220;-69
2022/09/03 04:24:32;;;;;;;9.40;1.40;;;13.30;99.90;;;;;;5037921;28;20638;-68
2022/09/03 04:27:03;;;;;;;9.25;1.35;;;13.20;99.90;;;;;;5045079;28;20190;-68
2022/09/03 04:29:34;;;;;;;7.43;1.40;;;13.20;99.90;;;;;;5049335;28;20192;-69
2022/09/03 04:34:53;;;;;;;8.10;1.63;;;13.10;99.90;;;;;;5042282;28;20193;-68
2022/09/03 04:37:24;;;;;;;6.60;1.50;;;13.00;99.90;;;;;;5043447;28;20233;-68
2022/09/03 04:39:55;;;;;;;10.82;1.63;;;13.00;99.90;;;;;;5046432;28;20205;-68
2022/09/03 04:42:26;;;;;;;14.10;1.92;;;13.00;99.90;;;;;;5042677;28;20217;-68
2022/09/03 04:44:56;;;;;;;7.95;1.60;;;13.00;99.90;;;;;;5041965;28;20201;-68
2022/09/03 04:47:27;;;;;;;7.78;1.50;;;13.00;99.90;;;;;;5042571;28;20187;-68
2022/09/03 04:50:00;;;;;;;8.25;1.27;;;13.10;99.90;;;;;;5038445;28;20187;-69
2022/09/03 04:52:32;;;;;;;7.25;1.80;;;13.10;99.90;;;;;;5047826;28;20220;-68
2022/09/03 04:55:03;;;;;;;7.93;1.75;;;13.10;99.90;;;;;;5040695;28;20192;-68
2022/09/03 04:57:36;;;;;;;11.07;1.40;;;13.20;99.90;;;;;;5044742;28;20193;-68
2022/09/03 05:00:10;;;;;;;6.05;1.50;;;13.30;99.90;;;;;;5043396;28;20194;-68
2022/09/03 05:02:41;;;;;;;4.95;0.88;;;13.20;99.90;;;;;;5037162;28;20721;-68
2022/09/03 05:05:14;;;;;;;6.43;1.20;;;13.30;99.90;;;;;;5043792;28;20185;-68
2022/09/03 05:07:44;;;;;;;8.50;1.60;;;13.30;99.90;;;;;;5038069;28;20190;-69
2022/09/03 05:10:19;;;;;;;8.07;1.08;;;13.30;99.90;;;;;;5039478;28;20198;-69
2022/09/03 05:12:59;;;;;;;11.50;1.30;;;13.40;99.90;;;;;;5037012;28;20250;-68
2022/09/03 05:15:30;;;;;;;9.35;1.35;;;13.40;99.90;;;;;;5037228;28;20553;-68
2022/09/03 05:18:02;;;;;;;10.20;1.23;;;13.40;99.90;;;;;;5046106;28;20191;-69
2022/09/03 05:20:34;;;;;;;9.85;1.60;;;13.40;99.90;;;;;;5049502;28;20597;-69
2022/09/03 05:23:06;;;;;;;6.22;1.10;;;13.40;99.90;;;;;;5046774;28;20182;-69
2022/09/03 05:25:36;;;;;;;7.28;1.20;;;13.40;99.90;;;;;;5049026;28;20200;-70
2022/09/03 05:28:08;;;;;;;10.57;1.27;;;13.30;99.90;;;;;;5047061;28;20194;-69
2022/09/03 05:30:38;;;;;;;8.27;1.38;;;13.40;99.90;;;;;;5040984;28;20190;-69
2022/09/03 05:33:09;;;;;;;12.95;1.50;;;13.40;99.90;;;;;;5044709;28;20189;-69
2022/09/03 05:35:42;;;;;;;8.38;1.30;;;13.30;99.90;;;;;;5051591;28;20192;-69
2022/09/03 05:38:14;;;;;;;8.02;1.42;;;13.30;99.90;;;;;;5047342;28;20734;-70
2022/09/03 05:40:45;;;;;;;7.50;1.15;;;13.30;99.90;;;;;;5043972;28;20186;-69
2022/09/03 05:43:16;;;;;;;12.85;1.50;;;13.30;99.90;;;;;;5044418;28;20239;-69
2022/09/03 05:45:47;;;;;;;4.88;1.20;;;13.30;99.90;;;;;;5044987;28;20266;-69
2022/09/03 05:48:19;;;;;;;6.03;1.20;;;13.30;99.90;;;;;;5044362;28;20222;-69
2022/09/03 05:50:51;;;;;;;5.22;1.10;;;13.40;99.90;;;;;;5050984;28;20659;-69
2022/09/03 05:53:22;;;;;;;10.20;1.30;;;13.50;99.90;;;;;;5044841;28;20193;-69
2022/09/03 05:55:58;;;;;;;7.57;1.17;;;13.50;99.90;;;;;;5041294;28;20658;-69
2022/09/03 05:58:33;;;;;;;4.90;1.10;;;13.60;99.90;;;;;;5040414;28;20197;-69
2022/09/03 06:01:13;;;;;;;5.45;1.20;;;13.70;99.90;;;;;;5050066;28;20551;-70
2022/09/03 06:03:45;;;;;;;3.72;0.80;;;13.90;99.90;;;;;;5044346;28;20182;-69
2022/09/03 06:06:18;;;;;;;4.53;0.95;;;13.90;99.90;;;;;;5043748;28;20195;-69
2022/09/03 06:08:51;;;;;;;10.10;1.10;;;14.00;99.90;;;;;;5045949;28;20592;-69
2022/09/03 06:11:27;;;;;;;6.00;0.88;;;14.10;99.90;;;;;;5043487;28;20193;-69
2022/09/03 06:13:59;;;;;;;7.70;1.27;;;14.10;99.90;;;;;;5049359;28;20568;-70
2022/09/03 06:16:30;;;;;;;5.55;1.08;;;14.10;99.90;;;;;;5048423;28;20281;-69
2022/09/03 06:19:01;;;;;;;5.65;0.90;;;14.10;99.90;;;;;;5040985;28;20264;-69
2022/09/03 06:21:34;;;;;;;6.13;0.70;;;14.20;99.90;;;;;;5045453;28;20218;-69
2022/09/03 06:24:06;;;;;;;7.97;1.23;;;14.20;99.90;;;;;;5048450;28;20275;-70
2022/09/03 06:26:36;;;;;;;5.43;1.42;;;14.30;99.90;;;;;;5042221;28;20191;-70
2022/09/03 06:29:07;;;;;;;6.25;0.95;;;14.30;99.90;;;;;;5042914;28;20189;-70
2022/09/03 06:31:38;;;;;;;6.03;0.93;;;14.30;99.90;;;;;;5045907;28;20191;-70
2022/09/03 06:34:09;;;;;;;5.82;0.90;;;14.20;99.90;;;;;;5040262;28;20252;-71
2022/09/03 06:36:42;;;;;;;7.05;1.33;;;14.30;99.90;;;;;;5046324;28;20218;-71
2022/09/03 06:39:12;;;;;;;6.57;1.02;;;14.30;99.90;;;;;;5046729;28;20275;-68
2022/09/03 06:41:44;;;;;;;5.68;1.02;;;14.30;99.90;;;;;;5043464;28;20210;-69
2022/09/03 06:44:15;;;;;;;7.20;1.00;;;14.40;99.90;;;;;;5042935;28;20191;-69
2022/09/03 06:46:46;;;;;;;4.25;1.23;;;14.40;99.90;;;;;;5044401;28;20193;-70
2022/09/03 06:49:18;;;;;;;10.15;1.20;;;14.50;99.90;;;;;;5041576;28;20201;-69
2022/09/03 06:51:51;;;;;;;4.47;1.27;;;14.50;99.90;;;;;;5044008;28;20281;-68
2022/09/03 06:54:21;;;;;;;9.25;1.35;;;14.50;99.90;;;;;;5043431;28;20205;-69
2022/09/03 06:56:52;;;;;;;8.07;1.55;;;14.40;99.90;;;;;;5046255;28;20274;-69
2022/09/03 06:59:23;;;;;;;8.63;1.40;;;14.40;99.90;;;;;;5040428;28;20220;-69
2022/09/03 07:01:54;;;;;;;8.88;0.95;;;14.40;99.90;;;;;;5043765;28;20547;-69
2022/09/03 07:04:26;;;;;;;6.03;1.13;;;14.40;99.90;;;;;;5043783;28;20642;-69
2022/09/03 07:06:59;;;;;;;12.25;1.38;;;14.40;99.90;;;;;;5044377;28;20194;-69
2022/09/03 07:09:31;;;;;;;5.75;1.52;;;14.40;99.90;;;;;;5043871;28;20194;-69
2022/09/03 07:12:01;;;;;;;10.40;1.38;;;14.50;99.90;;;;;;5044109;28;20652;-69
2022/09/03 07:14:32;;;;;;;8.32;1.20;;;14.50;99.90;;;;;;5044644;28;20200;-68
2022/09/03 07:17:03;;;;;;;7.13;0.90;;;14.50;99.90;;;;;;5047668;28;20228;-68
2022/09/03 07:19:34;;;;;;;5.93;0.90;;;14.40;99.90;;;;;;5044800;28;20190;-69
2022/09/03 07:22:06;;;;;;;6.90;1.23;;;14.40;99.90;;;;;;5047012;28;20209;-69
2022/09/03 07:24:40;;;;;;;9.13;1.20;;;14.40;99.90;;;;;;5049374;28;20195;-69
2022/09/03 07:27:11;;;;;;;11.07;1.25;;;14.40;99.90;;;;;;5045386;28;20182;-69
2022/09/03 07:29:42;;;;;;;5.82;1.48;;;14.30;99.90;;;;;;5039370;28;20197;-68
2022/09/03 07:32:13;;;;;;;7.05;1.20;;;14.20;99.90;;;;;;5042349;28;20638;-69
2022/09/03 07:34:44;;;;;;;6.50;0.90;;;14.20;99.90;;;;;;5049012;28;20200;-68
2022/09/03 07:37:17;;;;;;;4.78;0.95;;;14.10;99.90;;;;;;5037958;28;20588;-69
2022/09/03 07:39:48;;;;;;;4.30;1.00;;;14.10;99.90;;;;;;5042669;28;20207;-69
2022/09/03 07:42:19;;;;;;;5.57;1.23;;;14.10;99.90;;;;;;5046738;28;20233;-69
2022/09/03 07:44:50;;;;;;;5.05;1.20;;;14.10;99.90;;;;;;5044330;28;20193;-69
2022/09/03 07:47:21;;;;;;;8.27;1.20;;;14.20;99.90;;;;;;5040805;28;20649;-69
2022/09/03 07:49:51;;;;;;;4.65;1.00;;;14.10;99.90;;;;;;5042891;28;20186;-68
2022/09/03 07:52:24;;;;;;;6.15;1.30;;;14.10;99.90;;;;;;5040509;28;20194;-68
2022/09/03 07:54:55;;;;;;;3.78;0.90;;;14.10;99.90;;;;;;5042889;28;20187;-69
2022/09/03 07:57:25;;;;;;;8.13;1.02;;;14.20;99.90;;;;;;5042995;28;20193;-68
2022/09/03 07:59:56;;;;;;;9.40;1.20;;;14.00;99.90;;;;;;5044072;28;20196;-68
2022/09/03 08:02:27;;;;;;;6.15;1.45;;;14.10;99.90;;;;;;5042991;28;20685;-68
2022/09/03 08:04:58;;;;;;;4.28;1.02;;;14.00;99.90;;;;;;5045036;28;20182;-69
2022/09/03 08:07:31;;;;;;;3.67;0.90;;;14.00;99.90;;;;;;5042303;28;20200;-69
2022/09/03 08:10:02;;;;;;;4.65;1.02;;;14.10;99.90;;;;;;5033768;28;20194;-68
2022/09/03 08:12:34;;;;;;;5.93;1.00;;;14.10;99.90;;;;;;5034045;28;20645;-68
2022/09/03 08:15:05;;;;;;;6.03;1.20;;;14.20;99.90;;;;;;5048245;28;20208;-68
2022/09/03 08:17:35;;;;;;;5.22;0.80;;;14.20;99.90;;;;;;5042148;28;20564;-68
2022/09/03 08:20:09;;;;;;;4.07;0.80;;;14.10;99.90;;;;;;5044080;28;20200;-68
2022/09/03 08:22:42;;;;;;;7.43;1.00;;;14.10;99.90;;;;;;5046178;28;20244;-68
2022/09/03 08:25:13;;;;;;;5.53;1.05;;;14.20;99.90;;;;;;5046099;28;20197;-68
2022/09/03 08:27:44;;;;;;;7.53;1.00;;;14.20;99.90;;;;;;5040518;28;20194;-68
2022/09/03 08:30:15;;;;;;;5.85;0.63;;;14.10;99.90;;;;;;5053451;28;20190;-68
2022/09/03 08:32:45;;;;;;;3.38;0.88;;;14.00;99.90;;;;;;5048470;28;20190;-68
2022/09/03 08:35:16;;;;;;;4.35;0.73;;;13.90;99.90;;;;;;5044265;28;20187;-67
2022/09/03 08:37:52;;;;;;;2.72;0.90;;;13.80;99.90;;;;;;5045348;28;20237;-68
2022/09/03 08:40:24;;;;;;;1.92;0.68;;;13.70;99.90;;;;;;5033719;28;20274;-68
2022/09/03 08:43:07;;;;;;;2.28;0.70;;;13.60;99.90;;;;;;5044532;28;20213;-67
2022/09/03 08:45:39;;;;;;;3.15;0.90;;;13.50;99.90;;;;;;5053296;28;20567;-68
2022/09/03 08:48:15;;;;;;;3.58;0.73;;;13.50;99.90;;;;;;5053289;28;20559;-68
2022/09/03 08:50:50;;;;;;;5.85;1.30;;;13.40;99.90;;;;;;5052449;28;20185;-68
2022/09/03 08:53:27;;;;;;;3.90;1.10;;;13.30;99.90;;;;;;5053379;28;20236;-68
2022/09/03 08:56:01;;;;;;;4.45;0.90;;;13.30;99.90;;;;;;5034708;28;20190;-68
2022/09/03 08:58:37;;;;;;;5.13;1.00;;;13.30;99.90;;;;;;5033285;28;20580;-68
2022/09/03 09:01:18;;;;;;;3.70;0.80;;;13.30;99.90;;;;;;5033229;28;20193;-68
2022/09/03 09:03:58;;;;;;;4.65;1.02;;;13.30;99.90;;;;;;5032967;28;20232;-67
2022/09/03 09:06:38;;;;;;;7.43;1.30;;;13.30;99.90;;;;;;5033353;28;20193;-68
2022/09/03 09:09:22;;;;;;;3.35;1.38;;;13.30;99.90;;;;;;5033443;28;20190;-67
2022/09/03 09:12:06;;;;;;;4.82;0.80;;;13.50;99.90;;;;;;5033121;28;20190;-67
2022/09/03 09:14:42;;;;;;;5.30;1.00;;;13.70;99.90;;;;;;5033130;28;20198;-67
2022/09/03 09:17:31;;;;;;;6.40;1.13;;;13.80;99.90;;;;;;5033031;28;20196;-68
2022/09/03 09:20:08;;;;;;;6.93;0.90;;;13.90;99.90;;;;;;5033148;28;20190;-68
2022/09/03 09:22:42;;;;;;;4.28;1.08;;;14.10;99.90;;;;;;5032971;28;20248;-67
2022/09/03 09:25:20;;;;;;;9.57;1.10;;;14.10;99.90;;;;;;5033212;28;20190;-67
2022/09/03 09:27:56;;;;;;;4.45;0.90;;;14.10;99.90;;;;;;5033047;28;20195;-67
2022/09/03 09:30:27;;;;;;;5.72;1.00;;;13.90;99.90;;;;;;5034930;28;20194;-68
2022/09/03 09:32:59;;;;;;;6.00;1.15;;;13.80;99.90;;;;;;5052727;28;20565;-68
2022/09/03 09:35:30;;;;;;;5.57;1.00;;;13.70;99.90;;;;;;5052445;28;20186;-68
2022/09/03 09:38:01;;;;;;;7.55;1.20;;;13.60;99.90;;;;;;5040910;28;20764;-68
2022/09/03 09:40:37;;;;;;;6.18;1.20;;;13.60;99.90;;;;;;5052871;28;20190;-71
2022/09/03 09:43:09;;;;;;;9.20;1.42;;;13.60;99.90;;;;;;5039594;28;20735;-70
2022/09/03 09:45:41;;;;;;;7.68;1.30;;;13.60;99.90;;;;;;5032831;28;20217;-70
2022/09/03 09:48:22;;;;;;;5.47;1.10;;;13.50;99.90;;;;;;5032493;28;20323;-71
2022/09/03 09:51:04;;;;;;;8.05;1.00;;;13.50;99.90;;;;;;5032868;28;20194;-70
2022/09/03 09:53:35;;;;;;;8.30;1.30;;;13.50;99.90;;;;;;5032719;28;20190;-70
2022/09/03 09:56:09;;;;;;;7.65;1.50;;;13.50;99.90;;;;;;5052426;28;20194;-70
2022/09/03 09:58:40;;;;;;;8.07;1.30;;;13.50;99.90;;;;;;5052668;28;20212;-71
2022/09/03 10:01:16;;;;;;;8.57;1.42;;;13.40;99.90;;;;;;5052420;28;20190;-71
2022/09/03 10:03:54;;;;;;;6.28;1.33;;;13.50;99.90;;;;;;5055462;28;20581;-70
2022/09/03 10:09:15;;;;;;;2.95;0.77;;;13.60;99.90;;;;;;5056526;28;20319;-71
2022/09/03 10:11:51;;;;;;;2.65;0.98;;;13.70;99.90;;;;;;5056327;28;20656;-71
2022/09/03 10:14:31;;;;;;;4.68;1.20;;;13.80;99.90;;;;;;5055938;28;20276;-70
2022/09/03 10:17:11;;;;;;;3.67;0.80;;;13.90;99.90;;;;;;5054057;28;20196;-70
2022/09/03 10:20:26;;;;;;;5.70;1.10;;;13.90;99.90;;;;;;5044617;28;20212;-70
2022/09/03 10:22:50;;;;;;;3.67;1.05;;;13.90;99.90;;;;;;5055528;28;20252;-70
2022/09/03 10:25:23;;;;;;;7.15;1.20;;;13.90;99.90;;;;;;5035811;28;20673;-70
2022/09/03 10:27:57;;;;;;;4.82;1.52;;;13.90;99.90;;;;;;5035837;28;20709;-71
2022/09/03 10:30:28;;;;;;;6.82;1.33;;;13.80;99.90;;;;;;5035592;28;20645;-70
2022/09/03 10:33:08;;;;;;;6.55;0.95;;;13.80;99.90;;;;;;5035992;28;20201;-70
2022/09/03 10:35:46;;;;;;;4.13;1.08;;;13.80;99.90;;;;;;5040086;28;20660;-71
2022/09/03 10:38:25;;;;;;;1.27;0.60;;;13.90;99.90;;;;;;5044382;28;20233;-71
2022/09/03 10:41:08;;;;;;;6.40;1.20;;;13.90;99.90;;;;;;5055453;28;20192;-71
2022/09/03 10:44:09;;;;;;;5.13;1.05;;;14.00;99.90;;;;;;5037622;28;20221;-71
2022/09/03 10:46:49;;;;;;;3.90;0.85;;;13.80;99.90;;;;;;5035272;28;20544;-71
2022/09/03 10:49:31;;;;;;;4.00;0.70;;;13.80;99.90;;;;;;5035376;28;20190;-69
2022/09/03 10:52:11;;;;;;;6.20;2.05;;;13.80;99.90;;;;;;5035415;28;20190;-71
2022/09/03 10:54:56;;;;;;;4.68;0.90;;;13.80;99.90;;;;;;5043594;28;20220;-70
2022/09/03 10:57:40;;;;;;;7.75;0.90;;;13.80;99.90;;;;;;5055159;28;20189;-71
2022/09/03 11:00:17;;;;;;;5.90;0.90;;;13.90;99.90;;;;;;5055023;28;20204;-70
2022/09/03 11:03:27;;;;;;;5.40;0.90;;;14.00;99.90;;;;;;5055045;28;20213;-70
2022/09/03 11:06:05;;;;;;;2.60;0.98;;;14.00;99.90;;;;;;5026565;28;20595;-70
2022/09/03 11:08:41;;;;;;;3.92;0.65;;;14.00;99.90;;;;;;5054990;28;20199;-70
2022/09/03 11:11:18;;;;;;;4.57;0.88;;;14.00;99.90;;;;;;5054991;28;20196;-70
2022/09/03 11:13:53;;;;;;;7.25;1.08;;;14.00;99.90;;;;;;5054154;28;20189;-71
2022/09/03 11:16:30;;;;;;;2.95;0.88;;;14.10;99.90;;;;;;5054845;28;20212;-70
2022/09/03 11:19:06;;;;;;;4.63;0.85;;;14.00;99.90;;;;;;5054891;28;20190;-70
2022/09/03 11:21:42;;;;;;;3.88;0.88;;;14.00;99.90;;;;;;5046781;28;20190;-71
2022/09/03 11:24:16;;;;;;;3.50;0.75;;;14.00;99.90;;;;;;5051218;28;20213;-70
2022/09/03 11:26:51;;;;;;;5.32;0.77;;;14.00;99.90;;;;;;5050340;28;20197;-70
2022/09/03 11:29:27;;;;;;;5.95;0.85;;;13.90;99.90;;;;;;5034526;28;20194;-69
2022/09/03 11:32:06;;;;;;;3.72;0.68;;;14.10;99.90;;;;;;5034686;28;20655;-71
2022/09/03 11:34:48;;;;;;;3.60;1.00;;;14.10;99.90;;;;;;5034634;28;20617;-70
2022/09/03 11:37:26;;;;;;;3.30;0.98;;;14.20;99.90;;;;;;5045815;28;20225;-70
2022/09/03 11:40:00;;;;;;;4.60;0.95;;;14.30;99.90;;;;;;5034825;28;20565;-69
2022/09/03 11:42:35;;;;;;;6.70;1.05;;;14.20;99.90;;;;;;5042843;28;20193;-69
2022/09/03 11:45:25;;;;;;;6.38;0.88;;;14.20;99.90;;;;;;5054257;28;20189;-69
2022/09/03 11:47:57;;;;;;;5.38;0.80;;;14.10;99.90;;;;;;5054261;28;20220;-69
2022/09/03 11:50:30;;;;;;;2.65;0.70;;;14.20;99.90;;;;;;5054233;28;20550;-70
2022/09/03 11:53:12;;;;;;;4.47;0.82;;;14.20;99.90;;;;;;5054126;28;20200;-70
2022/09/03 11:55:55;;;;;;;6.53;0.80;;;14.20;99.90;;;;;;5036806;28;20190;-69
2022/09/03 11:58:31;;;;;;;3.75;0.82;;;14.10;99.90;;;;;;5033990;28;20196;-70
2022/09/03 12:01:03;;;;;;;3.38;0.95;;;14.00;99.90;;;;;;5034120;28;20198;-70
2022/09/03 12:03:44;;;;;;;8.73;1.00;;;13.90;99.90;;;;;;5033884;28;20218;-70
2022/09/03 12:06:42;;;;;;;4.95;0.90;;;13.90;99.90;;;;;;5033971;28;20194;-70
2022/09/03 12:09:50;;;;;;;2.67;0.90;;;13.90;99.90;;;;;;5034237;28;20265;-70
2022/09/03 12:12:47;;;;;;;5.93;0.75;;;13.90;99.90;;;;;;5016960;28;20662;-70
2022/09/03 12:15:33;;;;;;;3.30;0.70;;;14.10;99.90;;;;;;5031639;28;20198;-70
2022/09/03 12:21:09;;;;;;;5.85;1.13;;;14.30;99.90;;;;;;5026836;28;20205;-71
2022/09/03 12:23:46;;;;;;;4.93;1.00;;;14.30;99.90;;;;;;5033590;28;20222;-70
2022/09/03 12:26:18;;;;;;;5.28;0.77;;;14.20;99.90;;;;;;5033431;28;20226;-70
2022/09/03 12:28:51;;;;;;;8.23;0.95;;;14.20;99.90;;;;;;5033618;28;20190;-71
2022/09/03 12:31:24;;;;;;;7.05;1.10;;;14.10;99.90;;;;;;5043470;28;20203;-70
2022/09/03 12:33:57;;;;;;;8.65;0.80;;;14.00;99.90;;;;;;5053515;28;20707;-70
2022/09/03 12:36:39;;;;;;;3.42;0.80;;;13.90;99.90;;;;;;5047956;28;20224;-69
2022/09/03 12:39:14;;;;;;;2.97;0.70;;;13.90;99.90;;;;;;5048079;28;20240;-69
2022/09/03 12:41:58;;;;;;;5.10;0.93;;;13.90;99.90;;;;;;5050538;28;20666;-70
2022/09/03 12:44:30;;;;;;;5.32;0.85;;;13.90;99.90;;;;;;5033298;28;20217;-68
2022/09/03 12:47:12;;;;;;;4.65;1.00;;;13.80;99.90;;;;;;5033419;28;20190;-70
2022/09/03 12:49:44;;;;;;;7.47;1.08;;;13.80;99.90;;;;;;5033336;28;20672;-70
2022/09/03 12:52:20;;;;;;;4.95;0.88;;;13.80;99.90;;;;;;5033393;28;20194;-70
2022/09/03 12:54:56;;;;;;;4.28;0.98;;;13.80;99.90;;;;;;5043256;28;20196;-69
2022/09/03 12:57:32;;;;;;;5.00;0.90;;;13.80;99.90;;;;;;5053174;28;20193;-69
2022/09/03 13:00:06;;;;;;;7.72;0.90;;;13.90;99.90;;;;;;5053096;28;20562;-68
2022/09/03 13:02:45;;;;;;;4.78;1.00;;;13.90;99.90;;;;;;5053210;28;20196;-69
2022/09/03 13:05:20;;;;;;;6.22;0.95;;;13.90;99.90;;;;;;5053034;28;20225;-68
2022/09/03 13:07:55;;;;;;;4.90;0.80;;;14.00;99.90;;;;;;5053164;28;20193;-68
2022/09/03 13:10:30;;;;;;;3.83;0.90;;;14.00;99.90;;;;;;5052978;28;20188;-68
2022/09/03 13:13:03;;;;;;;3.05;0.73;;;14.00;99.90;;;;;;5053017;28;20195;-69
2022/09/03 13:15:34;;;;;;;5.55;0.60;;;13.80;99.90;;;;;;5053095;28;20200;-69
2022/09/03 13:18:21;;;;;;;7.63;1.00;;;13.70;99.90;;;;;;5053073;28;20196;-69
2022/09/03 13:21:08;;;;;;;4.35;0.82;;;13.60;99.90;;;;;;5053016;28;20212;-70
2022/09/03 13:24:06;;;;;;;6.03;0.80;;;13.60;99.90;;;;;;5053064;28;20209;-69
2022/09/03 13:26:50;;;;;;;7.85;1.10;;;13.40;99.90;;;;;;5052912;28;20198;-69
2022/09/03 13:29:39;;;;;;;9.05;1.27;;;13.30;99.90;;;;;;5052948;28;20193;-69
2022/09/03 13:32:20;;;;;;;7.57;1.35;;;13.30;99.90;;;;;;5036264;28;20198;-69
2022/09/03 13:34:55;;;;;;;6.50;1.23;;;13.30;99.90;;;;;;5032760;28;20282;-70
2022/09/03 13:37:33;;;;;;;9.23;1.30;;;13.20;99.90;;;;;;5045546;28;20668;-70